sensor_id;sensor_type;location;lat;lon;timestamp;pressure;altitude;pressure_sealevel;temperature;humidity
33286;BME280;19656;50.096;20.014;2023-09-19T00:00:10;98391.95;;;20.15;66.64
33286;BME280;19656;50.096;20.014;2023-09-19T00:05:38;98391.55;;;20.19;66.66
33286;BME280;19656;50.096;20.014;2023-09-19T00:11:21;98390.65;;;20.25;66.50
33286;BME280;19656;50.096;20.014;2023-09-19T00:16:24;98390.68;;;20.24;66.31
33286;BME280;19656;50.096;20.014;2023-09-19T00:21:32;98388.59;;;20.25;66.46
33286;BME280;19656;50.096;20.014;2023-09-19T00:26:37;98385.25;;;20.25;66.50
33286;BME280;19656;50.096;20.014;2023-09-19T00:31:43;98384.58;;;20.23;66.44
33286;BME280;19656;50.096;20.014;2023-09-19T00:36:50;98382.66;;;20.19;66.84
33286;BME280;19656;50.096;20.014;2023-09-19T00:41:57;98374.94;;;20.16;66.80
33286;BME280;19656;50.096;20.014;2023-09-19T00:47:03;98372.45;;;20.11;66.93
33286;BME280;19656;50.096;20.014;2023-09-19T00:52:08;98375.86;;;20.09;67.19
33286;BME280;19656;50.096;20.014;2023-09-19T00:57:16;98375.82;;;20.13;67.50
33286;BME280;19656;50.096;20.014;2023-09-19T01:02:24;98377.80;;;20.16;67.38
33286;BME280;19656;50.096;20.014;2023-09-19T01:07:32;98377.83;;;20.19;67.13
33286;BME280;19656;50.096;20.014;2023-09-19T01:13:03;98379.34;;;20.25;67.08
33286;BME280;19656;50.096;20.014;2023-09-19T01:34:19;98352.58;;;20.16;70.16
33286;BME280;19656;50.096;20.014;2023-09-19T01:39:25;98355.41;;;20.15;70.59
33286;BME280;19656;50.096;20.014;2023-09-19T01:44:40;98345.48;;;20.17;71.44
33286;BME280;19656;50.096;20.014;2023-09-19T01:50:01;98348.11;;;20.04;72.15
33286;BME280;19656;50.096;20.014;2023-09-19T01:55:09;98342.84;;;19.95;73.22
33286;BME280;19656;50.096;20.014;2023-09-19T04:05:46;98226.44;;;20.37;78.45
33286;BME280;19656;50.096;20.014;2023-09-19T04:10:54;98217.88;;;20.35;78.33
33286;BME280;19656;50.096;20.014;2023-09-19T04:16:00;98215.95;;;20.34;78.12
33286;BME280;19656;50.096;20.014;2023-09-19T04:21:06;98215.46;;;20.29;78.35
33286;BME280;19656;50.096;20.014;2023-09-19T04:26:12;98214.04;;;20.24;78.72
33286;BME280;19656;50.096;20.014;2023-09-19T04:31:17;98219.33;;;20.19;78.78
33286;BME280;19656;50.096;20.014;2023-09-19T04:36:22;98217.96;;;20.15;79.05
33286;BME280;19656;50.096;20.014;2023-09-19T04:41:39;98212.25;;;20.16;79.36
33286;BME280;19656;50.096;20.014;2023-09-19T04:46:44;98218.35;;;20.19;79.37
33286;BME280;19656;50.096;20.014;2023-09-19T04:51:50;98220.23;;;20.22;79.29
33286;BME280;19656;50.096;20.014;2023-09-19T04:56:55;98220.80;;;20.18;79.43
33286;BME280;19656;50.096;20.014;2023-09-19T05:02:01;98233.95;;;20.26;79.08
33286;BME280;19656;50.096;20.014;2023-09-19T05:07:09;98247.63;;;20.26;79.20
33286;BME280;19656;50.096;20.014;2023-09-19T05:12:15;98250.94;;;20.29;79.46
33286;BME280;19656;50.096;20.014;2023-09-19T05:17:22;98248.87;;;20.30;79.31
33286;BME280;19656;50.096;20.014;2023-09-19T05:22:29;98246.91;;;20.29;79.29
33286;BME280;19656;50.096;20.014;2023-09-19T05:27:33;98237.94;;;20.26;79.60
33286;BME280;19656;50.096;20.014;2023-09-19T05:32:38;98229.66;;;20.26;79.48
33286;BME280;19656;50.096;20.014;2023-09-19T05:37:42;98229.05;;;20.22;79.63
33286;BME280;19656;50.096;20.014;2023-09-19T05:42:48;98241.76;;;20.11;79.64
33286;BME280;19656;50.096;20.014;2023-09-19T05:47:54;98248.58;;;20.10;79.93
33286;BME280;19656;50.096;20.014;2023-09-19T05:53:13;98257.88;;;20.09;80.33
33286;BME280;19656;50.096;20.014;2023-09-19T05:58:18;98260.69;;;20.13;80.37
33286;BME280;19656;50.096;20.014;2023-09-19T06:03:24;98256.20;;;20.21;80.32
33286;BME280;19656;50.096;20.014;2023-09-19T06:08:30;98262.13;;;20.25;80.31
33286;BME280;19656;50.096;20.014;2023-09-19T06:13:36;98269.94;;;20.22;80.56
33286;BME280;19656;50.096;20.014;2023-09-19T06:18:42;98277.73;;;20.17;80.91
33286;BME280;19656;50.096;20.014;2023-09-19T06:23:49;98285.55;;;20.15;81.38
33286;BME280;19656;50.096;20.014;2023-09-19T06:28:53;98283.80;;;20.11;81.57
33286;BME280;19656;50.096;20.014;2023-09-19T06:33:56;98283.02;;;20.13;81.94
33286;BME280;19656;50.096;20.014;2023-09-19T06:39:02;98280.81;;;20.10;81.97
33286;BME280;19656;50.096;20.014;2023-09-19T06:44:07;98276.33;;;20.10;82.48
33286;BME280;19656;50.096;20.014;2023-09-19T06:49:11;98279.11;;;20.09;82.25
33286;BME280;19656;50.096;20.014;2023-09-19T06:54:17;98283.69;;;20.15;82.31
33286;BME280;19656;50.096;20.014;2023-09-19T06:59:21;98287.02;;;20.19;82.60
33286;BME280;19656;50.096;20.014;2023-09-19T07:04:25;98292.25;;;20.19;82.77
33286;BME280;19656;50.096;20.014;2023-09-19T07:09:29;98297.55;;;20.18;82.64
33286;BME280;19656;50.096;20.014;2023-09-19T07:14:34;98308.75;;;20.23;82.63
33286;BME280;19656;50.096;20.014;2023-09-19T07:19:38;98315.88;;;20.23;82.77
33286;BME280;19656;50.096;20.014;2023-09-19T07:24:42;98315.60;;;20.24;82.71
33286;BME280;19656;50.096;20.014;2023-09-19T07:29:46;98313.72;;;20.22;82.86
33286;BME280;19656;50.096;20.014;2023-09-19T07:34:55;98317.70;;;20.18;82.99
33286;BME280;19656;50.096;20.014;2023-09-19T07:40:07;98314.07;;;20.20;82.97
33286;BME280;19656;50.096;20.014;2023-09-19T07:45:14;98320.70;;;20.28;82.75
33286;BME280;19656;50.096;20.014;2023-09-19T07:50:21;98323.66;;;20.28;82.73
33286;BME280;19656;50.096;20.014;2023-09-19T08:10:27;98336.27;;;20.14;83.10
33286;BME280;19656;50.096;20.014;2023-09-19T08:15:32;98340.96;;;20.12;83.16
33286;BME280;19656;50.096;20.014;2023-09-19T08:20:38;98341.30;;;20.12;83.26
33286;BME280;19656;50.096;20.014;2023-09-19T08:25:42;98340.71;;;20.04;83.41
33286;BME280;19656;50.096;20.014;2023-09-19T08:30:48;98350.05;;;19.98;84.00
33286;BME280;19656;50.096;20.014;2023-09-19T08:35:55;98360.17;;;19.79;84.60
33286;BME280;19656;50.096;20.014;2023-09-19T08:41:04;98370.27;;;19.53;85.18
33286;BME280;19656;50.096;20.014;2023-09-19T08:46:18;98381.57;;;19.38;85.67
33286;BME280;19656;50.096;20.014;2023-09-19T08:51:45;98388.80;;;19.29;86.39
33286;BME280;19656;50.096;20.014;2023-09-19T08:56:50;98401.42;;;19.24;86.71
33286;BME280;19656;50.096;20.014;2023-09-19T09:01:58;98407.85;;;19.19;86.91
33286;BME280;19656;50.096;20.014;2023-09-19T09:07:04;98414.70;;;19.24;87.07
33286;BME280;19656;50.096;20.014;2023-09-19T09:12:14;98419.98;;;19.30;86.94
33286;BME280;19656;50.096;20.014;2023-09-19T09:17:20;98426.25;;;19.32;86.91
33286;BME280;19656;50.096;20.014;2023-09-19T09:22:23;98433.05;;;19.39;86.75
33286;BME280;19656;50.096;20.014;2023-09-19T09:27:28;98438.02;;;19.38;86.55
33286;BME280;19656;50.096;20.014;2023-09-19T09:32:34;98446.50;;;19.36;87.00
33286;BME280;19656;50.096;20.014;2023-09-19T09:38:01;98454.11;;;19.29;87.38
33286;BME280;19656;50.096;20.014;2023-09-19T09:43:37;98461.55;;;19.22;87.70
33286;BME280;19656;50.096;20.014;2023-09-19T09:49:03;98476.55;;;19.23;87.93
33286;BME280;19656;50.096;20.014;2023-09-19T09:54:29;98481.64;;;19.22;88.21
33286;BME280;19656;50.096;20.014;2023-09-19T09:59:58;98492.02;;;19.19;88.54
33286;BME280;19656;50.096;20.014;2023-09-19T10:05:21;98499.63;;;19.29;88.57
33286;BME280;19656;50.096;20.014;2023-09-19T10:10:36;98504.13;;;19.42;88.21
33286;BME280;19656;50.096;20.014;2023-09-19T10:15:58;98513.17;;;19.53;87.65
33286;BME280;19656;50.096;20.014;2023-09-19T10:21:09;98521.93;;;19.51;87.30
33286;BME280;19656;50.096;20.014;2023-09-19T10:26:17;98527.18;;;19.47;87.30
33286;BME280;19656;50.096;20.014;2023-09-19T10:31:23;98532.86;;;19.50;87.19
33286;BME280;19656;50.096;20.014;2023-09-19T10:36:32;98541.81;;;19.52;87.07
33286;BME280;19656;50.096;20.014;2023-09-19T10:41:40;98547.98;;;19.63;86.83
33286;BME280;19656;50.096;20.014;2023-09-19T10:46:44;98548.69;;;19.68;85.77
33286;BME280;19656;50.096;20.014;2023-09-19T10:51:54;98550.85;;;19.61;85.72
33286;BME280;19656;50.096;20.014;2023-09-19T10:57:00;98555.04;;;19.66;85.70
33286;BME280;19656;50.096;20.014;2023-09-19T11:02:17;98561.79;;;19.69;85.89
33286;BME280;19656;50.096;20.014;2023-09-19T11:07:24;98567.07;;;19.72;85.98
33286;BME280;19656;50.096;20.014;2023-09-19T11:17:43;98573.79;;;19.73;85.94
33286;BME280;19656;50.096;20.014;2023-09-19T11:49:08;98587.00;;;19.79;85.53
33286;BME280;19656;50.096;20.014;2023-09-19T11:54:20;98588.46;;;19.70;85.28
33286;BME280;19656;50.096;20.014;2023-09-19T11:59:32;98589.68;;;19.65;85.56
33286;BME280;19656;50.096;20.014;2023-09-19T12:04:39;98591.13;;;19.58;85.63
33286;BME280;19656;50.096;20.014;2023-09-19T12:09:48;98589.66;;;19.58;85.62
33286;BME280;19656;50.096;20.014;2023-09-19T12:14:54;98597.89;;;19.55;85.92
33286;BME280;19656;50.096;20.014;2023-09-19T12:20:04;98599.14;;;19.57;86.03
33286;BME280;19656;50.096;20.014;2023-09-19T12:25:17;98604.81;;;19.58;86.10
33286;BME280;19656;50.096;20.014;2023-09-19T12:30:27;98602.18;;;19.54;86.14
33286;BME280;19656;50.096;20.014;2023-09-19T12:35:34;98603.05;;;19.56;86.47
33286;BME280;19656;50.096;20.014;2023-09-19T12:40:39;98603.55;;;19.60;86.31
33286;BME280;19656;50.096;20.014;2023-09-19T12:45:46;98604.90;;;19.59;86.12
33286;BME280;19656;50.096;20.014;2023-09-19T12:51:08;98604.66;;;19.51;86.38
33286;BME280;19656;50.096;20.014;2023-09-19T12:56:17;98609.77;;;19.49;86.86
33286;BME280;19656;50.096;20.014;2023-09-19T13:01:24;98608.79;;;19.51;87.09
33286;BME280;19656;50.096;20.014;2023-09-19T13:06:36;98608.46;;;19.57;87.19
33286;BME280;19656;50.096;20.014;2023-09-19T13:11:49;98609.36;;;19.52;87.16
33286;BME280;19656;50.096;20.014;2023-09-19T13:17:01;98610.08;;;19.49;87.77
33286;BME280;19656;50.096;20.014;2023-09-19T13:22:44;98609.85;;;19.53;88.12
33286;BME280;19656;50.096;20.014;2023-09-19T13:27:56;98615.48;;;19.68;88.04
33286;BME280;19656;50.096;20.014;2023-09-19T13:33:11;98621.77;;;19.68;87.53
33286;BME280;19656;50.096;20.014;2023-09-19T13:38:24;98624.60;;;19.70;87.39
33286;BME280;19656;50.096;20.014;2023-09-19T13:43:27;98632.14;;;19.71;86.84
33286;BME280;19656;50.096;20.014;2023-09-19T13:48:33;98637.66;;;19.78;86.74
33286;BME280;19656;50.096;20.014;2023-09-19T13:53:39;98636.52;;;19.82;86.40
33286;BME280;19656;50.096;20.014;2023-09-19T13:58:43;98638.66;;;19.94;86.06
33286;BME280;19656;50.096;20.014;2023-09-19T14:03:49;98640.48;;;20.04;85.24
33286;BME280;19656;50.096;20.014;2023-09-19T14:08:55;98642.92;;;20.14;84.80
33286;BME280;19656;50.096;20.014;2023-09-19T14:14:00;98639.59;;;20.22;84.76
33286;BME280;19656;50.096;20.014;2023-09-19T14:19:05;98641.00;;;20.35;84.38
33286;BME280;19656;50.096;20.014;2023-09-19T14:24:10;98635.39;;;20.42;84.08
33286;BME280;19656;50.096;20.014;2023-09-19T14:29:16;98639.94;;;20.50;83.87
33286;BME280;19656;50.096;20.014;2023-09-19T14:34:21;98637.46;;;20.58;83.47
33286;BME280;19656;50.096;20.014;2023-09-19T14:39:24;98639.56;;;20.70;83.57
33286;BME280;19656;50.096;20.014;2023-09-19T14:44:29;98645.23;;;20.86;82.97
33286;BME280;19656;50.096;20.014;2023-09-19T14:49:35;98652.60;;;20.89;81.96
33286;BME280;19656;50.096;20.014;2023-09-19T14:54:46;98659.19;;;20.93;81.54
33286;BME280;19656;50.096;20.014;2023-09-19T14:59:52;98659.08;;;20.95;80.87
33286;BME280;19656;50.096;20.014;2023-09-19T15:04:57;98662.16;;;21.00;80.40
33286;BME280;19656;50.096;20.014;2023-09-19T15:10:06;98659.36;;;20.95;79.64
33286;BME280;19656;50.096;20.014;2023-09-19T15:15:15;98664.88;;;20.87;79.46
33286;BME280;19656;50.096;20.014;2023-09-19T15:20:19;98671.08;;;20.77;79.54
33286;BME280;19656;50.096;20.014;2023-09-19T15:25:25;98667.01;;;20.75;79.85
33286;BME280;19656;50.096;20.014;2023-09-19T15:30:30;98667.86;;;20.75;79.44
33286;BME280;19656;50.096;20.014;2023-09-19T15:35:34;98663.18;;;20.72;79.33
33286;BME280;19656;50.096;20.014;2023-09-19T15:40:46;98663.36;;;20.68;79.11
33286;BME280;19656;50.096;20.014;2023-09-19T15:45:51;98663.89;;;20.61;79.21
33286;BME280;19656;50.096;20.014;2023-09-19T15:50:55;98669.54;;;20.58;79.42
33286;BME280;19656;50.096;20.014;2023-09-19T15:56:08;98670.52;;;20.59;79.59
33286;BME280;19656;50.096;20.014;2023-09-19T16:01:15;98677.73;;;20.66;79.74
33286;BME280;19656;50.096;20.014;2023-09-19T16:06:23;98684.20;;;20.70;79.75
33286;BME280;19656;50.096;20.014;2023-09-19T16:11:28;98690.37;;;20.74;79.72
33286;BME280;19656;50.096;20.014;2023-09-19T16:16:34;98687.35;;;20.68;79.51
33286;BME280;19656;50.096;20.014;2023-09-19T16:21:39;98686.67;;;20.68;79.67
33286;BME280;19656;50.096;20.014;2023-09-19T16:26:45;98680.90;;;20.74;80.42
33286;BME280;19656;50.096;20.014;2023-09-19T16:31:50;98678.71;;;20.78;79.88
33286;BME280;19656;50.096;20.014;2023-09-19T16:36:55;98679.58;;;20.65;79.01
33286;BME280;19656;50.096;20.014;2023-09-19T16:41:59;98678.23;;;20.56;78.78
33286;BME280;19656;50.096;20.014;2023-09-19T16:47:21;98690.20;;;20.50;77.87
33286;BME280;19656;50.096;20.014;2023-09-19T16:52:26;98684.56;;;20.45;78.29
33286;BME280;19656;50.096;20.014;2023-09-19T16:57:31;98684.89;;;20.56;78.30
33286;BME280;19656;50.096;20.014;2023-09-19T17:02:35;98690.19;;;20.66;78.21
33286;BME280;19656;50.096;20.014;2023-09-19T17:07:40;98696.18;;;20.71;77.91
33286;BME280;19656;50.096;20.014;2023-09-19T17:12:45;98708.09;;;20.80;76.97
33286;BME280;19656;50.096;20.014;2023-09-19T17:17:50;98714.52;;;20.69;75.07
33286;BME280;19656;50.096;20.014;2023-09-19T17:22:56;98720.38;;;20.50;74.54
33286;BME280;19656;50.096;20.014;2023-09-19T17:28:02;98722.61;;;20.32;74.75
33286;BME280;19656;50.096;20.014;2023-09-19T17:33:07;98732.80;;;20.19;75.04
33286;BME280;19656;50.096;20.014;2023-09-19T17:38:10;98743.19;;;20.03;75.42
33286;BME280;19656;50.096;20.014;2023-09-19T17:43:14;98750.90;;;19.90;76.06
33286;BME280;19656;50.096;20.014;2023-09-19T17:48:20;98757.91;;;19.80;76.41
33286;BME280;19656;50.096;20.014;2023-09-19T17:53:26;98759.80;;;19.74;76.72
33286;BME280;19656;50.096;20.014;2023-09-19T17:58:32;98762.08;;;19.71;77.08
33286;BME280;19656;50.096;20.014;2023-09-19T18:03:38;98766.42;;;19.76;78.40
33286;BME280;19656;50.096;20.014;2023-09-19T18:08:45;98772.49;;;19.94;79.06
33286;BME280;19656;50.096;20.014;2023-09-19T18:13:51;98778.27;;;20.08;78.67
33286;BME280;19656;50.096;20.014;2023-09-19T18:18:59;98787.14;;;20.06;76.97
33286;BME280;19656;50.096;20.014;2023-09-19T18:24:07;98793.77;;;19.95;76.86
33286;BME280;19656;50.096;20.014;2023-09-19T18:29:18;98801.81;;;19.89;76.76
33286;BME280;19656;50.096;20.014;2023-09-19T18:34:22;98812.39;;;19.78;76.50
33286;BME280;19656;50.096;20.014;2023-09-19T18:39:27;98818.38;;;19.66;76.60
33286;BME280;19656;50.096;20.014;2023-09-19T18:44:35;98821.41;;;19.55;77.02
33286;BME280;19656;50.096;20.014;2023-09-19T18:49:42;98825.44;;;19.51;77.09
33286;BME280;19656;50.096;20.014;2023-09-19T18:54:49;98826.92;;;19.49;77.23
33286;BME280;19656;50.096;20.014;2023-09-19T18:59:53;98830.02;;;19.47;77.19
33286;BME280;19656;50.096;20.014;2023-09-19T19:04:57;98834.70;;;19.38;77.09
33286;BME280;19656;50.096;20.014;2023-09-19T19:10:04;98834.98;;;19.28;77.10
33286;BME280;19656;50.096;20.014;2023-09-19T19:15:09;98836.71;;;19.22;77.35
33286;BME280;19656;50.096;20.014;2023-09-19T19:20:16;98836.23;;;19.20;77.47
33286;BME280;19656;50.096;20.014;2023-09-19T19:25:24;98836.88;;;19.13;77.49
33286;BME280;19656;50.096;20.014;2023-09-19T19:30:30;98844.73;;;19.05;77.55
33286;BME280;19656;50.096;20.014;2023-09-19T19:35:35;98848.16;;;18.99;77.61
33286;BME280;19656;50.096;20.014;2023-09-19T19:40:42;98850.80;;;18.96;77.72
33286;BME280;19656;50.096;20.014;2023-09-19T19:45:55;98856.98;;;18.94;77.87
33286;BME280;19656;50.096;20.014;2023-09-19T19:51:06;98859.52;;;18.99;78.23
33286;BME280;19656;50.096;20.014;2023-09-19T19:56:13;98857.55;;;19.02;77.52
33286;BME280;19656;50.096;20.014;2023-09-19T20:01:16;98858.91;;;18.98;77.70
33286;BME280;19656;50.096;20.014;2023-09-19T20:10:27;98860.39;;;18.94;77.67
33286;BME280;19656;50.096;20.014;2023-09-19T20:15:35;98864.04;;;18.93;78.00
33286;BME280;19656;50.096;20.014;2023-09-19T20:20:39;98865.27;;;18.96;77.99
33286;BME280;19656;50.096;20.014;2023-09-19T20:25:45;98866.49;;;18.94;77.97
33286;BME280;19656;50.096;20.014;2023-09-19T20:30:50;98870.25;;;18.92;78.21
33286;BME280;19656;50.096;20.014;2023-09-19T20:35:57;98874.77;;;18.88;78.28
33286;BME280;19656;50.096;20.014;2023-09-19T20:41:08;98877.16;;;18.89;78.30
33286;BME280;19656;50.096;20.014;2023-09-19T20:46:16;98877.67;;;18.86;78.23
33286;BME280;19656;50.096;20.014;2023-09-19T20:51:20;98880.98;;;18.87;78.40
33286;BME280;19656;50.096;20.014;2023-09-19T20:56:29;98885.20;;;18.87;78.41
33286;BME280;19656;50.096;20.014;2023-09-19T21:01:35;98884.66;;;18.81;78.23
33286;BME280;19656;50.096;20.014;2023-09-19T21:06:43;98886.27;;;18.81;78.45
33286;BME280;19656;50.096;20.014;2023-09-19T21:11:51;98891.92;;;18.77;78.46
33286;BME280;19656;50.096;20.014;2023-09-19T21:16:57;98892.11;;;18.73;78.63
33286;BME280;19656;50.096;20.014;2023-09-19T21:22:02;98891.65;;;18.68;78.60
33286;BME280;19656;50.096;20.014;2023-09-19T21:27:08;98891.90;;;18.58;78.74
33286;BME280;19656;50.096;20.014;2023-09-19T21:32:14;98890.07;;;18.51;79.12
33286;BME280;19656;50.096;20.014;2023-09-19T21:37:19;98889.39;;;18.51;79.32
33286;BME280;19656;50.096;20.014;2023-09-19T21:42:24;98890.81;;;18.51;79.14
33286;BME280;19656;50.096;20.014;2023-09-19T21:47:29;98896.35;;;18.48;79.31
33286;BME280;19656;50.096;20.014;2023-09-19T21:52:34;98894.59;;;18.41;79.40
33286;BME280;19656;50.096;20.014;2023-09-19T21:57:40;98888.34;;;18.37;79.59
33286;BME280;19656;50.096;20.014;2023-09-19T22:02:45;98886.70;;;18.38;79.68
33286;BME280;19656;50.096;20.014;2023-09-19T22:07:50;98886.13;;;18.42;79.58
33286;BME280;19656;50.096;20.014;2023-09-19T22:12:55;98887.16;;;18.42;79.56
33286;BME280;19656;50.096;20.014;2023-09-19T22:18:06;98887.61;;;18.38;79.61
33286;BME280;19656;50.096;20.014;2023-09-19T22:23:13;98890.27;;;18.31;79.73
33286;BME280;19656;50.096;20.014;2023-09-19T22:28:17;98887.29;;;18.28;80.13
33286;BME280;19656;50.096;20.014;2023-09-19T22:33:21;98880.90;;;18.27;80.13
33286;BME280;19656;50.096;20.014;2023-09-19T22:38:26;98879.65;;;18.27;80.26
33286;BME280;19656;50.096;20.014;2023-09-19T22:43:33;98881.33;;;18.25;80.18
33286;BME280;19656;50.096;20.014;2023-09-19T22:48:38;98879.31;;;18.19;80.26
33286;BME280;19656;50.096;20.014;2023-09-19T22:53:43;98889.45;;;18.15;80.41
33286;BME280;19656;50.096;20.014;2023-09-19T22:58:50;98889.89;;;18.12;80.38
33286;BME280;19656;50.096;20.014;2023-09-19T23:03:55;98895.48;;;18.08;80.33
33286;BME280;19656;50.096;20.014;2023-09-19T23:09:23;98895.64;;;18.03;80.29
33286;BME280;19656;50.096;20.014;2023-09-19T23:14:29;98900.89;;;17.98;80.44
33286;BME280;19656;50.096;20.014;2023-09-19T23:19:45;98900.45;;;17.94;80.72
33286;BME280;19656;50.096;20.014;2023-09-19T23:24:56;98904.30;;;17.93;80.70
33286;BME280;19656;50.096;20.014;2023-09-19T23:30:21;98903.23;;;17.96;80.69
33286;BME280;19656;50.096;20.014;2023-09-19T23:35:26;98901.40;;;17.99;80.48
33286;BME280;19656;50.096;20.014;2023-09-19T23:40:34;98901.75;;;17.95;80.47
33286;BME280;19656;50.096;20.014;2023-09-19T23:45:40;98905.38;;;17.93;80.47
33286;BME280;19656;50.096;20.014;2023-09-19T23:50:47;98905.09;;;17.96;80.47
33286;BME280;19656;50.096;20.014;2023-09-19T23:55:52;98913.77;;;17.95;80.25
